Time;durP1;ratioP1;P1;durP2;ratioP2;P2;SDS_P1;SDS_P2;PMS_P1;PMS_P2;Temp;Humidity;BMP_temperature;BMP_pressure;BME280_temperature;BME280_humidity;BME280_pressure;Samples;Min_cycle;Max_cycle;Signal;HPM_P1;HPM_P2
2024/03/25 00:00:27;;;;;;;;;;;17.80;63.90;;;;;;5002070;28;1402;-71
2024/03/25 00:02:54;;;;;;;;;;;17.80;63.90;;;;;;5017155;28;1342;-71
2024/03/25 00:05:22;;;;;;;;;;;17.80;63.90;;;;;;5031396;28;1573;-71
2024/03/25 00:07:48;;;;;;;;;;;17.80;63.90;;;;;;5009797;28;1898;-71
2024/03/25 00:10:13;;;;;;;;;;;17.80;63.90;;;;;;5004761;28;1459;-69
2024/03/25 00:12:39;;;;;;;;;;;17.80;63.90;;;;;;5001628;28;1424;-70
2024/03/25 00:15:04;;;;;;;;;;;17.80;63.90;;;;;;4999541;28;1312;-70
2024/03/25 00:17:30;;;;;;;;;;;17.80;64.00;;;;;;5001531;28;1193;-70
2024/03/25 00:19:56;;;;;;;;;;;17.80;63.90;;;;;;5001384;28;1436;-70
2024/03/25 00:22:21;;;;;;;;;;;17.80;63.90;;;;;;5032871;28;1242;-69
2024/03/25 00:24:47;;;;;;;;;;;17.80;63.90;;;;;;4999702;28;1562;-69
2024/03/25 00:27:16;;;;;;;;;;;17.80;63.90;;;;;;5032078;28;1276;-72
2024/03/25 00:29:42;;;;;;;;;;;17.80;64.00;;;;;;5031963;28;1910;-71
2024/03/25 00:32:07;;;;;;;;;;;17.80;64.00;;;;;;5000556;28;1489;-72
2024/03/25 00:34:33;;;;;;;;;;;17.80;64.00;;;;;;5001549;28;1602;-71
2024/03/25 00:36:59;;;;;;;;;;;17.80;64.00;;;;;;5030987;28;1363;-69
2024/03/25 00:39:25;;;;;;;;;;;17.80;64.00;;;;;;5033626;28;1501;-70
2024/03/25 00:41:51;;;;;;;;;;;17.80;64.10;;;;;;5028835;28;1329;-70
2024/03/25 00:44:16;;;;;;;;;;;17.80;64.00;;;;;;5000340;28;1590;-70
2024/03/25 00:46:42;;;;;;;;;;;17.80;64.00;;;;;;5001522;28;1345;-71
2024/03/25 00:49:08;;;;;;;;;;;17.80;64.00;;;;;;4999923;28;1976;-70
2024/03/25 00:51:33;;;;;;;;;;;17.80;64.00;;;;;;5001016;28;1305;-70
2024/03/25 00:53:59;;;;;;;;;;;17.80;64.00;;;;;;5028538;28;1551;-71
2024/03/25 00:56:25;;;;;;;;;;;17.80;64.00;;;;;;5028708;28;1301;-71
2024/03/25 00:58:50;;;;;;;;;;;17.80;64.10;;;;;;5033054;28;1266;-70
2024/03/25 01:01:16;;;;;;;;;;;17.80;64.00;;;;;;5029819;28;1258;-70
2024/03/25 01:03:41;;;;;;;;;;;17.80;64.10;;;;;;5000602;28;1299;-70
2024/03/25 01:06:07;;;;;;;;;;;17.80;64.10;;;;;;4997806;28;1616;-70
2024/03/25 01:08:32;;;;;;;;;;;17.80;64.10;;;;;;5030132;28;2001;-71
2024/03/25 01:10:57;;;;;;;;;;;17.80;64.10;;;;;;5001464;28;1483;-72
2024/03/25 01:13:23;;;;;;;;;;;17.80;64.10;;;;;;5002626;28;1411;-72
2024/03/25 01:15:48;;;;;;;;;;;17.80;64.10;;;;;;5003339;28;1398;-70
2024/03/25 01:18:14;;;;;;;;;;;17.80;64.10;;;;;;5002713;28;1409;-69
2024/03/25 01:20:39;;;;;;;;;;;17.70;64.10;;;;;;5036455;28;1849;-70
2024/03/25 01:23:05;;;;;;;;;;;17.80;64.10;;;;;;5035001;28;1360;-69
2024/03/25 01:25:30;;;;;;;;;;;17.70;64.10;;;;;;5002275;28;1586;-69
2024/03/25 01:27:56;;;;;;;;;;;17.70;64.10;;;;;;5037328;28;1946;-70
2024/03/25 01:30:22;;;;;;;;;;;17.70;64.10;;;;;;5005675;28;1682;-69
2024/03/25 01:32:48;;;;;;;;;;;17.70;64.10;;;;;;4999885;28;1560;-69
2024/03/25 01:35:15;;;;;;;;;;;17.70;64.10;;;;;;5003625;28;1261;-69
2024/03/25 01:37:40;;;;;;;;;;;17.70;64.10;;;;;;5003075;28;1212;-69
2024/03/25 01:40:06;;;;;;;;;;;17.70;64.10;;;;;;5005992;28;1486;-69
2024/03/25 01:42:32;;;;;;;;;;;17.70;64.10;;;;;;5002590;28;1715;-69
2024/03/25 01:44:58;;;;;;;;;;;17.70;64.10;;;;;;5003285;28;1462;-68
2024/03/25 01:47:23;;;;;;;;;;;17.70;64.10;;;;;;5002329;28;1660;-69
2024/03/25 01:49:53;;;;;;;;;;;17.70;64.10;;;;;;5022193;28;1965;-69
2024/03/25 01:52:20;;;;;;;;;;;17.70;64.10;;;;;;5002099;28;1311;-69
2024/03/25 01:54:45;;;;;;;;;;;17.70;64.10;;;;;;5031493;28;1413;-69
2024/03/25 01:57:10;;;;;;;;;;;17.70;64.10;;;;;;5004477;28;1658;-70
2024/03/25 01:59:36;;;;;;;;;;;17.70;64.10;;;;;;5036901;28;979;-69
2024/03/25 02:02:01;;;;;;;;;;;17.70;64.20;;;;;;5001119;28;1109;-69
2024/03/25 02:04:27;;;;;;;;;;;17.70;64.20;;;;;;5035267;28;1293;-69
2024/03/25 02:06:52;;;;;;;;;;;17.70;64.20;;;;;;5038047;28;1289;-69
2024/03/25 02:09:18;;;;;;;;;;;17.70;64.10;;;;;;5036938;28;1913;-69
2024/03/25 02:11:43;;;;;;;;;;;17.70;64.20;;;;;;4986814;28;1551;-69
2024/03/25 02:14:09;;;;;;;;;;;17.70;64.20;;;;;;5032125;28;1417;-69
2024/03/25 02:16:34;;;;;;;;;;;17.70;64.20;;;;;;5004024;28;1783;-71
2024/03/25 02:19:00;;;;;;;;;;;17.70;64.20;;;;;;5035853;28;1453;-70
2024/03/25 02:21:25;;;;;;;;;;;17.70;64.20;;;;;;5004070;28;1477;-71
2024/03/25 02:23:51;;;;;;;;;;;17.70;64.20;;;;;;5000171;28;1571;-71
2024/03/25 02:26:16;;;;;;;;;;;17.70;64.20;;;;;;5034014;28;1471;-70
2024/03/25 02:28:41;;;;;;;;;;;17.70;64.20;;;;;;5001406;28;1971;-69
2024/03/25 02:31:07;;;;;;;;;;;17.70;64.20;;;;;;5001696;28;1138;-70
2024/03/25 02:33:33;;;;;;;;;;;17.70;64.20;;;;;;5031801;28;1456;-70
2024/03/25 02:35:58;;;;;;;;;;;17.70;64.20;;;;;;5001660;28;1233;-69
2024/03/25 02:38:24;;;;;;;;;;;17.70;64.20;;;;;;5001141;28;1400;-69
2024/03/25 02:40:49;;;;;;;;;;;17.70;64.30;;;;;;5019204;28;1318;-69
2024/03/25 02:43:16;;;;;;;;;;;17.70;64.30;;;;;;5034449;28;939;-68
2024/03/25 02:45:41;;;;;;;;;;;17.70;64.20;;;;;;4999966;28;1324;-68
2024/03/25 02:48:07;;;;;;;;;;;17.70;64.30;;;;;;5001444;28;1956;-69
2024/03/25 02:50:32;;;;;;;;;;;17.70;64.30;;;;;;5001956;28;1430;-71
2024/03/25 02:52:58;;;;;;;;;;;17.70;64.30;;;;;;4997985;28;1520;-71
2024/03/25 02:55:23;;;;;;;;;;;17.70;64.30;;;;;;5034071;28;1360;-71
2024/03/25 02:57:48;;;;;;;;;;;17.70;64.40;;;;;;5031005;28;1223;-70
2024/03/25 03:00:14;;;;;;;;;;;17.70;64.30;;;;;;5001734;28;1430;-69
2024/03/25 03:02:39;;;;;;;;;;;17.70;64.30;;;;;;5032699;28;1460;-71
2024/03/25 03:05:05;;;;;;;;;;;17.70;64.30;;;;;;5003416;28;1262;-70
2024/03/25 03:07:30;;;;;;;;;;;17.70;64.30;;;;;;5008291;28;1899;-70
2024/03/25 03:09:56;;;;;;;;;;;17.70;64.30;;;;;;4997409;28;1760;-71
2024/03/25 03:12:21;;;;;;;;;;;17.70;64.30;;;;;;5033657;28;1416;-71
2024/03/25 03:14:47;;;;;;;;;;;17.70;64.30;;;;;;5030961;28;1477;-70
2024/03/25 03:17:12;;;;;;;;;;;17.70;64.40;;;;;;4998166;28;1348;-71
2024/03/25 03:19:38;;;;;;;;;;;17.70;64.40;;;;;;5048265;28;1309;-73
2024/03/25 03:22:03;;;;;;;;;;;17.70;64.70;;;;;;5004128;28;1255;-72
2024/03/25 03:24:29;;;;;;;;;;;17.70;64.40;;;;;;5004024;28;1521;-72
2024/03/25 03:26:54;;;;;;;;;;;17.70;64.40;;;;;;4998085;28;1314;-71
2024/03/25 03:29:20;;;;;;;;;;;17.70;64.40;;;;;;5032195;28;1902;-70
2024/03/25 03:31:45;;;;;;;;;;;17.70;64.40;;;;;;5001038;28;1613;-69
2024/03/25 03:34:11;;;;;;;;;;;17.70;64.40;;;;;;5028470;28;1382;-70
2024/03/25 03:36:36;;;;;;;;;;;17.70;64.40;;;;;;5000065;28;1265;-69
2024/03/25 03:39:03;;;;;;;;;;;17.70;64.40;;;;;;5000003;28;1341;-69
2024/03/25 03:41:28;;;;;;;;;;;17.70;64.40;;;;;;5033410;28;1637;-69
2024/03/25 03:43:54;;;;;;;;;;;17.70;64.40;;;;;;5031928;28;1216;-69
2024/03/25 03:46:19;;;;;;;;;;;17.70;65.20;;;;;;4999755;28;1307;-71
2024/03/25 03:48:45;;;;;;;;;;;17.70;64.40;;;;;;4999741;28;1907;-70
2024/03/25 03:51:10;;;;;;;;;;;17.70;64.50;;;;;;5008793;28;1468;-71
2024/03/25 03:53:35;;;;;;;;;;;17.70;64.40;;;;;;5034178;28;1404;-70
2024/03/25 03:56:02;;;;;;;;;;;17.70;64.40;;;;;;5000491;28;1336;-70
2024/03/25 03:58:27;;;;;;;;;;;17.70;64.40;;;;;;5030769;28;1609;-71
2024/03/25 04:00:53;;;;;;;;;;;17.70;64.40;;;;;;5000141;28;1255;-70
2024/03/25 04:03:18;;;;;;;;;;;17.60;65.20;;;;;;4998542;28;1402;-71
2024/03/25 04:05:44;;;;;;;;;;;17.70;65.20;;;;;;4990525;28;1372;-70
2024/03/25 04:08:09;;;;;;;;;;;17.70;64.50;;;;;;5014731;28;1967;-70
2024/03/25 04:10:36;;;;;;;;;;;17.60;64.40;;;;;;4998807;28;1298;-71
2024/03/25 04:13:01;;;;;;;;;;;17.70;64.40;;;;;;5000986;28;1546;-71
2024/03/25 04:15:27;;;;;;;;;;;17.60;64.40;;;;;;5030401;28;1305;-70
2024/03/25 04:17:52;;;;;;;;;;;17.60;64.50;;;;;;5031206;28;1384;-71
2024/03/25 04:20:18;;;;;;;;;;;17.60;64.40;;;;;;5000598;28;1276;-70
2024/03/25 04:22:43;;;;;;;;;;;17.60;64.40;;;;;;5000259;28;1645;-70
2024/03/25 04:25:12;;;;;;;;;;;17.60;64.40;;;;;;4997948;28;1510;-70
2024/03/25 04:27:40;;;;;;;;;;;17.60;64.50;;;;;;5031106;28;1974;-71
2024/03/25 04:30:07;;;;;;;;;;;17.60;64.50;;;;;;5000120;28;907;-70
2024/03/25 04:32:33;;;;;;;;;;;17.60;64.50;;;;;;5032799;28;1471;-70
2024/03/25 04:34:58;;;;;;;;;;;17.60;64.50;;;;;;4998430;28;1265;-70
2024/03/25 04:37:24;;;;;;;;;;;17.60;64.50;;;;;;5000553;28;1204;-71
2024/03/25 04:39:49;;;;;;;;;;;17.60;64.50;;;;;;4997175;28;1248;-70
2024/03/25 04:42:15;;;;;;;;;;;17.60;64.50;;;;;;4998270;28;1405;-71
2024/03/25 04:44:40;;;;;;;;;;;17.60;64.50;;;;;;5007392;28;1576;-70
2024/03/25 04:47:06;;;;;;;;;;;17.60;64.50;;;;;;5031461;28;1319;-70
2024/03/25 04:49:31;;;;;;;;;;;17.60;64.50;;;;;;5019588;28;1898;-70
2024/03/25 04:51:57;;;;;;;;;;;17.60;65.20;;;;;;5034189;28;1333;-70
2024/03/25 04:54:22;;;;;;;;;;;17.60;64.50;;;;;;5034372;28;1442;-71
2024/03/25 04:56:48;;;;;;;;;;;17.60;64.50;;;;;;5005385;28;1272;-70
2024/03/25 04:59:13;;;;;;;;;;;17.60;64.50;;;;;;5004216;28;1463;-70
2024/03/25 05:01:38;;;;;;;;;;;17.60;64.50;;;;;;5002775;28;1127;-71
2024/03/25 05:04:04;;;;;;;;;;;17.60;64.50;;;;;;5033215;28;1446;-71
2024/03/25 05:06:29;;;;;;;;;;;17.60;64.50;;;;;;5032613;28;1209;-71
2024/03/25 05:08:55;;;;;;;;;;;17.60;64.50;;;;;;5035852;28;1914;-71
2024/03/25 05:11:20;;;;;;;;;;;17.60;64.50;;;;;;5000071;28;1477;-70
2024/03/25 05:13:46;;;;;;;;;;;17.70;64.50;;;;;;5001228;28;1524;-71
2024/03/25 05:16:11;;;;;;;;;;;17.70;64.40;;;;;;5021297;28;1601;-71
2024/03/25 05:18:37;;;;;;;;;;;17.70;64.40;;;;;;5002160;28;1450;-70
2024/03/25 05:21:02;;;;;;;;;;;17.70;64.30;;;;;;5002487;28;1069;-70
2024/03/25 05:23:28;;;;;;;;;;;17.70;64.10;;;;;;5033380;28;1302;-71
2024/03/25 05:25:53;;;;;;;;;;;17.80;64.10;;;;;;5002830;28;1339;-71
2024/03/25 05:28:18;;;;;;;;;;;17.80;64.00;;;;;;5034118;28;1971;-70
2024/03/25 05:30:44;;;;;;;;;;;17.80;63.80;;;;;;5002527;28;1533;-70
2024/03/25 05:33:10;;;;;;;;;;;17.90;63.80;;;;;;5001400;28;879;-70
2024/03/25 05:35:36;;;;;;;;;;;17.90;63.70;;;;;;5002344;28;1272;-70
2024/03/25 05:38:03;;;;;;;;;;;17.90;63.60;;;;;;5000312;28;1222;-70
2024/03/25 05:40:29;;;;;;;;;;;17.90;63.50;;;;;;5031386;28;1342;-70
2024/03/25 05:42:54;;;;;;;;;;;18.00;63.50;;;;;;4997565;28;1331;-70
2024/03/25 05:45:19;;;;;;;;;;;18.00;63.40;;;;;;5002705;28;1567;-71
2024/03/25 05:47:45;;;;;;;;;;;18.00;63.40;;;;;;5036181;28;1879;-71
2024/03/25 05:50:11;;;;;;;;;;;18.00;63.30;;;;;;5003457;28;1347;-70
2024/03/25 05:52:36;;;;;;;;;;;18.00;63.20;;;;;;5001013;28;1371;-70
2024/03/25 05:55:02;;;;;;;;;;;18.00;63.10;;;;;;5001336;28;1443;-71
2024/03/25 05:57:28;;;;;;;;;;;18.00;63.10;;;;;;4999751;28;1243;-70
2024/03/25 05:59:53;;;;;;;;;;;18.10;63.10;;;;;;5033384;28;1344;-70
2024/03/25 06:02:18;;;;;;;;;;;18.10;63.10;;;;;;5034076;28;1154;-70
2024/03/25 06:04:44;;;;;;;;;;;18.10;63.00;;;;;;5031049;28;1560;-70
2024/03/25 06:07:09;;;;;;;;;;;18.10;63.00;;;;;;5009344;28;1398;-70
2024/03/25 06:09:35;;;;;;;;;;;18.10;62.90;;;;;;5031600;28;1981;-70
2024/03/25 06:12:00;;;;;;;;;;;18.10;62.90;;;;;;4999790;28;1457;-69
2024/03/25 06:14:26;;;;;;;;;;;18.10;62.90;;;;;;5032689;28;1560;-70
2024/03/25 06:16:51;;;;;;;;;;;18.10;62.90;;;;;;5001737;28;1460;-70
2024/03/25 06:19:17;;;;;;;;;;;18.10;62.80;;;;;;5033258;28;1277;-69
2024/03/25 06:21:42;;;;;;;;;;;18.10;62.80;;;;;;5000206;28;1648;-70
2024/03/25 06:24:08;;;;;;;;;;;18.10;62.80;;;;;;5002026;28;1463;-70
2024/03/25 06:26:34;;;;;;;;;;;18.10;62.70;;;;;;5001243;28;1468;-70
2024/03/25 06:28:59;;;;;;;;;;;18.10;62.70;;;;;;4999101;28;1909;-69
2024/03/25 06:34:17;;;;;;;;;;;18.20;62.70;;;;;;5001289;28;1535;-70
2024/03/25 06:36:44;;;;;;;;;;;18.10;62.70;;;;;;4998112;28;2271;-69
2024/03/25 06:39:10;;;;;;;;;;;18.10;62.70;;;;;;5026472;28;1832;-69
2024/03/25 06:41:35;;;;;;;;;;;18.10;62.70;;;;;;5028733;28;1305;-69
2024/03/25 06:44:01;;;;;;;;;;;18.10;62.70;;;;;;4997273;28;1474;-69
2024/03/25 06:46:26;;;;;;;;;;;18.10;62.70;;;;;;5031218;28;1363;-69
2024/03/25 06:48:52;;;;;;;;;;;18.20;62.70;;;;;;4998831;28;1962;-68
2024/03/25 06:51:17;;;;;;;;;;;18.10;62.70;;;;;;5030114;28;1448;-69
2024/03/25 06:53:43;;;;;;;;;;;18.20;62.70;;;;;;5029471;28;1350;-68
2024/03/25 06:56:08;;;;;;;;;;;18.10;62.70;;;;;;5028582;28;1573;-68
2024/03/25 06:58:34;;;;;;;;;;;18.20;62.70;;;;;;5030421;28;1572;-70
2024/03/25 07:01:06;;;;;;;;;;;18.10;62.70;;;;;;5000475;28;1549;-71
2024/03/25 07:03:32;;;;;;;;;;;18.20;62.70;;;;;;4998767;28;1240;-70
2024/03/25 07:05:59;;;;;;;;;;;18.10;62.70;;;;;;5033181;28;1512;-70
2024/03/25 07:08:25;;;;;;;;;;;18.10;62.70;;;;;;5033771;28;1968;-68
2024/03/25 07:10:51;;;;;;;;;;;18.10;62.70;;;;;;5030896;28;1616;-68
2024/03/25 07:13:16;;;;;;;;;;;18.10;62.70;;;;;;5029881;28;1481;-67
2024/03/25 07:15:44;;;;;;;;;;;18.20;62.80;;;;;;5000403;28;1685;-68
2024/03/25 07:18:13;;;;;;;;;;;18.20;62.80;;;;;;5030644;28;1526;-68
2024/03/25 07:20:42;;;;;;;;;;;18.10;62.70;;;;;;5031284;28;1492;-68
2024/03/25 07:23:07;;;;;;;;;;;18.10;62.80;;;;;;5030762;28;1570;-68
2024/03/25 07:25:33;;;;;;;;;;;18.10;62.80;;;;;;5031235;28;1610;-67
2024/03/25 07:27:58;;;;;;;;;;;18.10;62.80;;;;;;5000929;28;2300;-69
2024/03/25 07:30:27;;;;;;;;;;;18.10;62.90;;;;;;4998246;28;1460;-69
2024/03/25 07:32:53;;;;;;;;;;;18.10;62.90;;;;;;4999065;28;1218;-69
2024/03/25 07:35:18;;;;;;;;;;;18.10;63.60;;;;;;4998700;28;1474;-70
2024/03/25 07:37:44;;;;;;;;;;;18.10;62.90;;;;;;4997550;28;1204;-69
2024/03/25 07:40:12;;;;;;;;;;;18.10;62.90;;;;;;5032501;28;1501;-70
2024/03/25 07:42:38;;;;;;;;;;;18.10;63.00;;;;;;5017470;28;1387;-69
2024/03/25 07:45:05;;;;;;;;;;;18.10;63.00;;;;;;5031653;28;1619;-73
2024/03/25 07:47:30;;;;;;;;;;;18.10;63.00;;;;;;4998892;28;1468;-70
2024/03/25 07:49:55;;;;;;;;;;;18.10;63.00;;;;;;4998729;28;1926;-72
2024/03/25 07:52:21;;;;;;;;;;;18.10;63.10;;;;;;5002736;28;1525;-71
2024/03/25 07:54:47;;;;;;;;;;;18.10;63.00;;;;;;5029937;28;1542;-69
2024/03/25 07:57:12;;;;;;;;;;;18.10;63.10;;;;;;5034292;28;1686;-69
2024/03/25 07:59:38;;;;;;;;;;;18.00;63.00;;;;;;4998424;28;1513;-69
2024/03/25 08:02:03;;;;;;;;;;;18.00;63.00;;;;;;5017010;28;1573;-69
2024/03/25 08:04:29;;;;;;;;;;;18.10;63.10;;;;;;5033840;28;1527;-70
2024/03/25 08:06:54;;;;;;;;;;;18.00;63.10;;;;;;5014885;28;1337;-70
2024/03/25 08:09:20;;;;;;;;;;;18.00;63.10;;;;;;5045738;28;1938;-69
2024/03/25 08:11:45;;;;;;;;;;;18.00;63.10;;;;;;5030935;28;1459;-70
2024/03/25 08:14:11;;;;;;;;;;;18.00;63.10;;;;;;5000963;28;1582;-70
2024/03/25 08:16:36;;;;;;;;;;;18.00;63.10;;;;;;4997987;28;1461;-69
2024/03/25 08:19:02;;;;;;;;;;;18.00;63.20;;;;;;5032344;28;1639;-69
2024/03/25 08:21:27;;;;;;;;;;;18.00;63.10;;;;;;5031289;28;913;-69
2024/03/25 08:23:53;;;;;;;;;;;18.00;63.20;;;;;;4999729;28;1239;-69
2024/03/25 08:26:18;;;;;;;;;;;18.00;63.20;;;;;;5000014;28;1536;-69
2024/03/25 08:28:44;;;;;;;;;;;18.00;63.20;;;;;;5031138;28;1946;-69
2024/03/25 08:31:09;;;;;;;;;;;18.00;63.20;;;;;;5029375;28;1173;-69
2024/03/25 08:33:35;;;;;;;;;;;18.00;63.20;;;;;;5001380;28;935;-69
2024/03/25 08:36:01;;;;;;;;;;;18.00;63.20;;;;;;5030886;28;1340;-69
2024/03/25 08:38:26;;;;;;;;;;;18.00;63.20;;;;;;4999948;28;1064;-69
2024/03/25 08:40:52;;;;;;;;;;;18.00;63.20;;;;;;4999908;28;1616;-69
2024/03/25 08:43:17;;;;;;;;;;;18.00;63.30;;;;;;4998374;28;1586;-69
2024/03/25 08:45:43;;;;;;;;;;;18.00;63.30;;;;;;4998888;28;1800;-69
2024/03/25 08:48:09;;;;;;;;;;;18.00;63.40;;;;;;4998612;28;1968;-69
2024/03/25 08:50:34;;;;;;;;;;;18.00;63.30;;;;;;4998149;28;1269;-69
2024/03/25 08:53:00;;;;;;;;;;;18.00;63.40;;;;;;4999449;28;1447;-69
2024/03/25 08:55:26;;;;;;;;;;;18.00;63.40;;;;;;5001594;28;1554;-70
2024/03/25 08:57:52;;;;;;;;;;;18.00;63.40;;;;;;4999950;28;915;-70
2024/03/25 09:00:18;;;;;;;;;;;18.00;63.40;;;;;;5030103;28;1463;-69
2024/03/25 09:02:43;;;;;;;;;;;18.00;63.40;;;;;;4998479;28;1272;-69
2024/03/25 09:05:09;;;;;;;;;;;17.90;63.30;;;;;;5005707;28;1574;-70
2024/03/25 09:07:35;;;;;;;;;;;18.00;63.40;;;;;;4998793;28;1337;-69
2024/03/25 09:12:44;;;;;;;;;;;18.00;63.40;;;;;;5023257;28;1507;-70
2024/03/25 09:15:09;;;;;;;;;;;18.00;63.40;;;;;;4996849;28;1560;-69
2024/03/25 09:17:35;;;;;;;;;;;18.00;63.40;;;;;;5029969;28;1590;-70
2024/03/25 09:20:01;;;;;;;;;;;18.00;63.30;;;;;;5000859;28;1431;-69
2024/03/25 09:22:26;;;;;;;;;;;18.00;63.30;;;;;;4997074;28;1555;-69
2024/03/25 09:24:52;;;;;;;;;;;18.00;63.30;;;;;;4996468;28;1318;-69
2024/03/25 09:27:18;;;;;;;;;;;18.00;63.30;;;;;;4999508;28;1359;-69
2024/03/25 09:29:43;;;;;;;;;;;18.00;63.20;;;;;;5031180;28;1897;-69
2024/03/25 09:32:09;;;;;;;;;;;18.00;63.20;;;;;;4997607;28;1261;-69
2024/03/25 09:34:34;;;;;;;;;;;18.00;63.20;;;;;;5002616;28;1530;-69
2024/03/25 09:37:00;;;;;;;;;;;18.00;63.10;;;;;;5005047;28;1623;-70
2024/03/25 09:39:25;;;;;;;;;;;18.10;63.20;;;;;;5032774;28;1333;-70
2024/03/25 09:41:51;;;;;;;;;;;18.10;63.10;;;;;;5003739;28;1706;-70
2024/03/25 09:44:16;;;;;;;;;;;18.10;63.10;;;;;;5034711;28;1402;-70
2024/03/25 09:46:42;;;;;;;;;;;18.10;63.00;;;;;;5020070;28;1227;-70
2024/03/25 09:49:07;;;;;;;;;;;18.10;63.00;;;;;;5030696;28;1930;-70
2024/03/25 09:51:32;;;;;;;;;;;18.10;63.00;;;;;;5002052;28;1527;-69
2024/03/25 09:53:58;;;;;;;;;;;18.10;63.00;;;;;;5019775;28;1660;-70
2024/03/25 09:56:24;;;;;;;;;;;18.10;63.00;;;;;;5034076;28;1315;-70
2024/03/25 09:58:49;;;;;;;;;;;18.10;63.00;;;;;;5001649;28;1590;-70
2024/03/25 10:01:15;;;;;;;;;;;18.10;63.00;;;;;;5021185;28;1792;-70
2024/03/25 10:03:40;;;;;;;;;;;18.10;63.00;;;;;;5001704;28;1680;-70
2024/03/25 10:06:08;;;;;;;;;;;18.10;63.00;;;;;;5001244;28;1669;-70
2024/03/25 10:08:33;;;;;;;;;;;18.10;63.00;;;;;;5002975;28;1918;-70
2024/03/25 10:11:00;;;;;;;;;;;18.10;63.00;;;;;;5001825;28;1606;-69
2024/03/25 10:13:26;;;;;;;;;;;18.10;63.00;;;;;;5033892;28;1672;-70
2024/03/25 10:15:51;;;;;;;;;;;18.10;63.00;;;;;;5001639;28;1285;-70
2024/03/25 10:18:17;;;;;;;;;;;18.10;63.10;;;;;;5003969;28;1491;-69
2024/03/25 10:20:51;;;;;;;;;;;18.10;63.00;;;;;;5031330;28;1324;-70
2024/03/25 10:23:23;;;;;;;;;;;18.10;63.10;;;;;;5001556;28;1268;-70
2024/03/25 10:25:48;;;;;;;;;;;18.00;63.00;;;;;;5033457;28;1359;-70
2024/03/25 10:28:14;;;;;;;;;;;18.00;63.00;;;;;;5030910;28;1959;-72
2024/03/25 10:30:40;;;;;;;;;;;18.00;63.10;;;;;;5036739;28;1538;-71
2024/03/25 10:33:06;;;;;;;;;;;18.00;63.10;;;;;;5039304;28;1497;-71
2024/03/25 10:35:35;;;;;;;;;;;18.10;63.20;;;;;;5030785;28;1298;-70
2024/03/25 10:38:04;;;;;;;;;;;18.00;63.10;;;;;;5025768;28;1449;-71
2024/03/25 10:40:30;;;;;;;;;;;18.00;63.10;;;;;;5032745;28;1144;-70
2024/03/25 10:43:03;;;;;;;;;;;18.00;63.10;;;;;;5031326;28;1227;-70
2024/03/25 10:45:31;;;;;;;;;;;18.00;63.20;;;;;;5034290;28;1527;-70
2024/03/25 10:47:57;;;;;;;;;;;18.00;63.20;;;;;;5029897;28;1902;-70
2024/03/25 10:50:24;;;;;;;;;;;18.00;63.20;;;;;;4999054;28;1133;-70
2024/03/25 10:52:50;;;;;;;;;;;18.00;63.20;;;;;;5030429;28;1345;-71
2024/03/25 10:55:16;;;;;;;;;;;18.00;63.20;;;;;;5020899;28;1376;-70
2024/03/25 10:57:41;;;;;;;;;;;18.00;63.30;;;;;;5031862;28;1225;-70
2024/03/25 11:00:08;;;;;;;;;;;18.00;63.30;;;;;;5031599;28;1481;-70
2024/03/25 11:02:33;;;;;;;;;;;18.00;63.40;;;;;;5032041;28;1352;-70
2024/03/25 11:04:58;;;;;;;;;;;18.00;63.40;;;;;;5031644;28;1572;-70
2024/03/25 11:07:30;;;;;;;;;;;18.00;63.40;;;;;;5001116;28;1620;-70
2024/03/25 11:10:01;;;;;;;;;;;18.00;63.40;;;;;;5033472;28;1973;-70
2024/03/25 11:12:31;;;;;;;;;;;18.00;63.40;;;;;;5032942;28;1197;-70
2024/03/25 11:14:57;;;;;;;;;;;18.00;63.40;;;;;;5002460;28;1371;-70
2024/03/25 11:17:22;;;;;;;;;;;17.90;63.40;;;;;;5033753;28;996;-69
2024/03/25 11:19:48;;;;;;;;;;;18.00;63.40;;;;;;5017038;28;1196;-70
2024/03/25 11:22:14;;;;;;;;;;;18.00;63.40;;;;;;5000353;28;958;-70
2024/03/25 11:24:43;;;;;;;;;;;17.90;63.40;;;;;;5000651;28;1371;-69
2024/03/25 11:27:08;;;;;;;;;;;18.00;63.50;;;;;;5032717;28;1468;-69
2024/03/25 11:29:34;;;;;;;;;;;18.00;63.50;;;;;;5020568;28;1898;-70
2024/03/25 11:31:59;;;;;;;;;;;18.00;63.50;;;;;;5002136;28;1619;-69
2024/03/25 11:34:25;;;;;;;;;;;17.90;63.50;;;;;;5023142;28;1845;-70
2024/03/25 11:36:56;;;;;;;;;;;17.90;63.50;;;;;;5017021;28;1291;-69
2024/03/25 11:39:21;;;;;;;;;;;17.90;63.60;;;;;;4999133;28;1480;-70
2024/03/25 11:41:47;;;;;;;;;;;17.90;63.60;;;;;;5000089;28;1316;-70
2024/03/25 11:44:12;;;;;;;;;;;17.90;63.60;;;;;;4997570;28;1371;-71
2024/03/25 11:46:38;;;;;;;;;;;17.90;63.60;;;;;;4999810;28;1335;-68
2024/03/25 11:49:07;;;;;;;;;;;17.90;63.70;;;;;;4998268;28;1972;-68
2024/03/25 11:51:33;;;;;;;;;;;17.90;63.90;;;;;;4998450;28;1651;-68
2024/03/25 11:53:59;;;;;;;;;;;17.90;64.70;;;;;;4997031;28;1401;-68
2024/03/25 11:56:25;;;;;;;;;;;18.00;64.40;;;;;;5032603;28;1598;-68
2024/03/25 11:58:51;;;;;;;;;;;17.90;62.50;;;;;;5032432;28;887;-68
2024/03/25 12:01:16;;;;;;;;;;;18.00;62.20;;;;;;5037932;28;876;-68
2024/03/25 12:03:41;;;;;;;;;;;18.00;61.20;;;;;;4999546;28;1340;-67
2024/03/25 12:06:07;;;;;;;;;;;17.90;61.30;;;;;;5033731;28;1216;-68
2024/03/25 12:08:36;;;;;;;;;;;17.90;62.50;;;;;;4999758;28;1967;-68
2024/03/25 12:11:20;;;;;;;;;;;18.00;62.30;;;;;;5029809;28;1600;-68
2024/03/25 12:13:45;;;;;;;;;;;18.00;62.60;;;;;;5014417;28;1235;-68
2024/03/25 12:16:10;;;;;;;;;;;18.00;62.30;;;;;;4996382;28;1666;-68
2024/03/25 12:18:36;;;;;;;;;;;18.00;62.80;;;;;;5002381;28;1427;-67
2024/03/25 12:21:04;;;;;;;;;;;17.90;60.50;;;;;;5031812;28;1107;-68
2024/03/25 12:23:30;;;;;;;;;;;17.90;61.50;;;;;;5032895;28;1440;-67
2024/03/25 12:25:55;;;;;;;;;;;17.90;60.40;;;;;;5029414;28;1350;-67
2024/03/25 12:28:21;;;;;;;;;;;17.90;61.40;;;;;;5026787;28;1906;-68
2024/03/25 12:30:50;;;;;;;;;;;17.90;60.40;;;;;;5031296;28;1484;-68
2024/03/25 12:33:16;;;;;;;;;;;17.90;60.20;;;;;;5028033;28;1335;-67
2024/03/25 12:35:41;;;;;;;;;;;17.90;61.60;;;;;;4998720;28;1468;-67
2024/03/25 12:38:07;;;;;;;;;;;17.90;61.00;;;;;;5029877;28;1208;-67
2024/03/25 12:40:32;;;;;;;;;;;17.90;61.50;;;;;;5003838;28;1425;-68
2024/03/25 12:42:58;;;;;;;;;;;17.90;60.80;;;;;;4999666;28;1624;-67
2024/03/25 12:45:23;;;;;;;;;;;17.90;60.90;;;;;;5028869;28;1568;-67
2024/03/25 12:47:52;;;;;;;;;;;17.90;60.90;;;;;;4999348;28;1671;-67
2024/03/25 12:50:18;;;;;;;;;;;17.90;60.80;;;;;;5016694;28;1882;-67
2024/03/25 12:52:44;;;;;;;;;;;17.90;60.10;;;;;;4996860;28;1474;-67
2024/03/25 12:55:09;;;;;;;;;;;17.90;60.80;;;;;;4997954;28;1762;-67
2024/03/25 12:57:35;;;;;;;;;;;17.90;59.90;;;;;;5015637;28;1530;-68
2024/03/25 13:00:00;;;;;;;;;;;17.90;59.90;;;;;;4998244;28;1613;-68
2024/03/25 13:02:26;;;;;;;;;;;17.90;59.90;;;;;;5000340;28;1473;-68
2024/03/25 13:04:52;;;;;;;;;;;17.90;59.70;;;;;;4983953;28;1690;-68
2024/03/25 13:07:17;;;;;;;;;;;17.90;59.20;;;;;;5031008;28;1497;-67
2024/03/25 13:09:43;;;;;;;;;;;17.80;59.10;;;;;;5004494;28;1993;-68
2024/03/25 13:12:08;;;;;;;;;;;17.80;58.80;;;;;;5002842;28;1387;-68
2024/03/25 13:14:34;;;;;;;;;;;17.80;59.00;;;;;;5007758;28;1296;-68
2024/03/25 13:16:59;;;;;;;;;;;17.80;58.80;;;;;;5005267;28;1301;-68
2024/03/25 13:19:27;;;;;;;;;;;17.80;58.30;;;;;;5004086;28;1487;-68
2024/03/25 13:21:53;;;;;;;;;;;17.80;58.40;;;;;;5002890;28;1479;-68
2024/03/25 13:24:19;;;;;;;;;;;17.80;58.80;;;;;;5033255;28;1374;-68
2024/03/25 13:26:44;;;;;;;;;;;17.80;58.40;;;;;;5002948;28;1433;-68
2024/03/25 13:29:10;;;;;;;;;;;17.80;58.60;;;;;;5002028;28;1974;-68
2024/03/25 13:31:36;;;;;;;;;;;17.80;58.60;;;;;;5001194;28;1369;-67
2024/03/25 13:34:02;;;;;;;;;;;17.80;58.90;;;;;;5035839;28;1452;-68
2024/03/25 13:36:28;;;;;;;;;;;17.80;58.60;;;;;;5035661;28;1474;-68
2024/03/25 13:38:53;;;;;;;;;;;17.80;58.90;;;;;;5004007;28;1525;-67
2024/03/25 13:41:21;;;;;;;;;;;17.80;58.50;;;;;;5005241;28;1416;-68
2024/03/25 13:43:47;;;;;;;;;;;17.80;58.90;;;;;;5034269;28;1477;-67
2024/03/25 13:46:13;;;;;;;;;;;17.80;58.60;;;;;;5002678;28;1303;-67
2024/03/25 13:48:38;;;;;;;;;;;17.80;58.20;;;;;;5004601;28;1960;-68
2024/03/25 13:51:04;;;;;;;;;;;17.80;58.60;;;;;;5033983;28;1369;-68
2024/03/25 13:53:29;;;;;;;;;;;17.80;57.90;;;;;;5029486;28;1445;-68
2024/03/25 13:55:55;;;;;;;;;;;17.80;58.80;;;;;;5002548;28;1377;-68
2024/03/25 13:58:20;;;;;;;;;;;17.80;57.80;;;;;;5035170;28;1680;-69
2024/03/25 14:00:50;;;;;;;;;;;17.80;58.00;;;;;;5033430;28;1398;-69
2024/03/25 14:03:15;;;;;;;;;;;17.80;58.10;;;;;;5004328;28;1375;-69
2024/03/25 14:05:41;;;;;;;;;;;17.80;57.90;;;;;;5033329;28;1213;-67
2024/03/25 14:08:06;;;;;;;;;;;17.80;57.50;;;;;;5001759;28;1906;-67
2024/03/25 14:10:32;;;;;;;;;;;17.80;57.70;;;;;;5003037;28;1446;-68
2024/03/25 14:12:57;;;;;;;;;;;17.80;57.60;;;;;;5002947;28;1455;-69
2024/03/25 14:15:23;;;;;;;;;;;17.90;57.70;;;;;;5033343;28;1392;-68
2024/03/25 14:17:48;;;;;;;;;;;17.90;57.90;;;;;;5034035;28;1339;-68
2024/03/25 14:20:13;;;;;;;;;;;17.90;57.70;;;;;;5033163;28;1342;-68
2024/03/25 14:22:39;;;;;;;;;;;17.90;57.60;;;;;;5003443;28;1113;-67
2024/03/25 14:25:05;;;;;;;;;;;17.90;57.20;;;;;;5002443;28;1304;-68
2024/03/25 14:27:30;;;;;;;;;;;18.00;57.40;;;;;;5000020;28;1312;-68